Time;durP1;ratioP1;P1;durP2;ratioP2;P2;SDS_P1;SDS_P2;PMS_P1;PMS_P2;Temp;Humidity;BMP_temperature;BMP_pressure;BME280_temperature;BME280_humidity;BME280_pressure;Samples;Min_cycle;Max_cycle;Signal;HPM_P1;HPM_P2
2022/07/31 00:01:33;;;;;;;0.10;0.10;;;17.30;99.90;;;;;;5027926;28;20267;-85
2022/07/31 00:03:59;;;;;;;0.10;0.10;;;17.30;99.90;;;;;;5022123;28;20196;-85
2022/07/31 00:06:25;;;;;;;0.10;0.10;;;17.30;99.90;;;;;;5017154;28;20266;-85
2022/07/31 00:08:51;;;;;;;0.10;0.10;;;17.30;99.90;;;;;;5003697;28;20550;-85
2022/07/31 00:11:16;;;;;;;0.10;0.10;;;17.30;99.90;;;;;;5021531;28;20208;-84
2022/07/31 00:13:42;;;;;;;0.10;0.10;;;17.40;99.90;;;;;;5010185;28;20215;-84
2022/07/31 00:16:08;;;;;;;0.10;0.10;;;17.30;99.90;;;;;;5019141;28;20199;-85
2022/07/31 00:18:36;;;;;;;0.10;0.10;;;17.20;99.90;;;;;;5020792;28;20190;-85
2022/07/31 00:21:02;;;;;;;0.10;0.10;;;17.30;99.90;;;;;;5025525;28;20184;-86
2022/07/31 00:23:28;;;;;;;0.10;0.10;;;17.30;99.90;;;;;;5028384;28;20449;-85
2022/07/31 00:25:54;;;;;;;0.10;0.10;;;17.30;99.90;;;;;;5028541;28;20468;-85
2022/07/31 00:28:20;;;;;;;0.10;0.10;;;17.30;99.90;;;;;;5027749;28;20818;-85
2022/07/31 00:30:46;;;;;;;0.10;0.10;;;17.20;99.90;;;;;;5008165;28;20191;-85
2022/07/31 00:33:12;;;;;;;0.10;0.10;;;17.30;99.90;;;;;;5028425;28;20281;-85
2022/07/31 00:35:38;;;;;;;0.10;0.10;;;17.20;99.90;;;;;;5013018;28;20832;-85
2022/07/31 00:38:03;;;;;;;0.10;0.10;;;17.20;99.90;;;;;;5020962;28;20803;-85
2022/07/31 00:40:29;;;;;;;0.10;0.10;;;17.10;99.90;;;;;;4996468;28;20295;-85
2022/07/31 00:42:54;;;;;;;0.10;0.10;;;17.20;99.90;;;;;;5012331;28;20557;-85
2022/07/31 00:45:20;;;;;;;0.10;0.10;;;17.20;99.90;;;;;;5006561;28;20196;-84
2022/07/31 00:47:45;;;;;;;0.10;0.10;;;17.20;99.90;;;;;;5018054;28;20187;-85
2022/07/31 00:50:11;;;;;;;0.10;0.10;;;17.20;99.90;;;;;;5028030;28;20198;-86
2022/07/31 00:52:37;;;;;;;0.10;0.10;;;17.30;99.90;;;;;;5018703;28;20269;-84
2022/07/31 00:55:03;;;;;;;0.10;0.10;;;17.40;99.90;;;;;;5009277;28;20854;-84
2022/07/31 00:57:29;;;;;;;0.10;0.10;;;17.40;99.90;;;;;;5009466;28;20194;-85
2022/07/31 00:59:54;;;;;;;0.10;0.10;;;17.40;99.90;;;;;;5019908;28;20855;-84
2022/07/31 01:02:20;;;;;;;0.10;0.10;;;17.40;99.90;;;;;;5012130;28;21816;-84
2022/07/31 01:04:45;;;;;;;0.10;0.10;;;17.30;99.90;;;;;;5020263;28;20196;-85
2022/07/31 01:07:11;;;;;;;0.10;0.10;;;17.20;99.90;;;;;;5028730;28;20191;-84
2022/07/31 01:09:36;;;;;;;0.10;0.10;;;17.20;99.90;;;;;;5022024;28;20548;-84
2022/07/31 01:12:17;;;;;;;0.10;0.10;;;17.20;99.90;;;;;;5012344;28;20649;-84
2022/07/31 01:14:48;;;;;;;0.10;0.10;;;17.10;99.90;;;;;;5020122;28;20210;-86
2022/07/31 01:17:16;;;;;;;0.10;0.10;;;17.20;99.90;;;;;;5020365;28;20454;-84
2022/07/31 01:19:47;;;;;;;0.10;0.10;;;17.10;99.90;;;;;;5004208;28;20816;-84
2022/07/31 01:22:31;;;;;;;0.10;0.10;;;17.20;99.90;;;;;;5026646;28;20517;-84
2022/07/31 01:25:02;;;;;;;0.10;0.10;;;17.20;99.90;;;;;;5018343;28;20515;-83
2022/07/31 01:28:17;;;;;;;0.10;0.10;;;17.10;99.90;;;;;;5018088;28;20457;-84
2022/07/31 01:30:53;;;;;;;0.10;0.10;;;17.00;99.90;;;;;;5021742;28;20469;-84
2022/07/31 01:33:21;;;;;;;0.10;0.10;;;17.20;99.90;;;;;;5021442;28;20482;-84
2022/07/31 01:35:53;;;;;;;0.10;0.10;;;17.10;99.90;;;;;;5020200;28;20450;-84
2022/07/31 01:38:26;;;;;;;0.10;0.10;;;17.20;99.90;;;;;;5024378;28;20500;-84
2022/07/31 01:41:01;;;;;;;0.10;0.10;;;17.10;99.90;;;;;;5024216;28;20891;-85
2022/07/31 01:43:39;;;;;;;0.10;0.10;;;17.00;99.90;;;;;;5010990;28;20477;-86
2022/07/31 01:46:08;;;;;;;0.10;0.10;;;17.00;99.90;;;;;;5026081;28;20532;-85
2022/07/31 01:48:35;;;;;;;0.10;0.10;;;17.00;99.90;;;;;;5024011;28;20446;-84
2022/07/31 01:51:02;;;;;;;0.10;0.10;;;17.00;99.90;;;;;;5022785;28;20450;-84
2022/07/31 01:53:30;;;;;;;0.10;0.10;;;17.10;99.90;;;;;;5022916;28;20469;-84
2022/07/31 01:55:57;;;;;;;0.10;0.10;;;17.10;99.90;;;;;;5021626;28;20446;-84
2022/07/31 01:58:25;;;;;;;0.10;0.10;;;17.10;99.90;;;;;;5019121;28;21001;-85
2022/07/31 02:00:57;;;;;;;0.10;0.10;;;17.10;99.90;;;;;;5024929;28;20504;-84
2022/07/31 02:03:24;;;;;;;0.10;0.10;;;17.10;99.90;;;;;;5021727;28;20981;-84
2022/07/31 02:05:50;;;;;;;0.10;0.10;;;17.10;99.90;;;;;;5029364;28;20477;-84
2022/07/31 02:08:17;;;;;;;0.10;0.10;;;17.00;99.90;;;;;;5012200;28;20460;-85
2022/07/31 02:10:44;;;;;;;0.10;0.10;;;17.10;99.90;;;;;;5026678;28;20453;-85
2022/07/31 02:13:12;;;;;;;0.10;0.10;;;17.00;99.90;;;;;;5024962;28;20569;-85
2022/07/31 02:15:38;;;;;;;0.10;0.10;;;17.10;99.90;;;;;;5027784;28;20482;-85
2022/07/31 02:18:05;;;;;;;0.10;0.10;;;17.00;99.90;;;;;;5027604;28;20449;-87
2022/07/31 02:20:32;;;;;;;0.10;0.10;;;17.00;99.90;;;;;;5020698;28;20445;-84
2022/07/31 02:23:00;;;;;;;0.10;0.10;;;17.00;99.90;;;;;;5007131;28;20446;-83
2022/07/31 02:25:26;;;;;;;0.10;0.10;;;17.10;99.90;;;;;;5008325;28;20562;-85
2022/07/31 02:27:54;;;;;;;0.10;0.10;;;17.00;99.90;;;;;;5016942;28;20446;-85
2022/07/31 02:30:20;;;;;;;0.10;0.10;;;16.90;99.90;;;;;;5025952;28;20481;-84
2022/07/31 02:32:46;;;;;;;0.10;0.10;;;16.90;99.90;;;;;;5029776;28;20498;-85
2022/07/31 02:35:15;;;;;;;0.10;0.10;;;16.90;99.90;;;;;;5011752;28;20545;-85
2022/07/31 02:37:42;;;;;;;0.10;0.10;;;16.90;99.90;;;;;;5026940;28;20937;-83
2022/07/31 02:40:12;;;;;;;0.10;0.10;;;16.90;99.90;;;;;;5021479;28;20465;-84
2022/07/31 02:42:40;;;;;;;0.10;0.10;;;16.90;99.90;;;;;;5025235;28;20445;-84
2022/07/31 02:45:08;;;;;;;0.10;0.10;;;16.90;99.90;;;;;;5026615;28;20461;-84
2022/07/31 02:47:36;;;;;;;0.10;0.10;;;16.80;99.90;;;;;;5024917;28;20431;-85
2022/07/31 02:50:04;;;;;;;0.10;0.10;;;16.80;99.90;;;;;;5022273;28;20521;-85
2022/07/31 02:52:30;;;;;;;0.10;0.10;;;16.80;99.90;;;;;;5006495;28;20961;-84
2022/07/31 02:54:57;;;;;;;0.10;0.10;;;16.80;99.90;;;;;;5024461;28;20466;-84
2022/07/31 02:57:23;;;;;;;0.10;0.10;;;16.80;99.90;;;;;;5008753;28;20187;-85
2022/07/31 02:59:48;;;;;;;0.10;0.10;;;16.70;99.90;;;;;;5005176;28;20479;-84
2022/07/31 03:02:14;;;;;;;0.10;0.10;;;16.80;99.90;;;;;;5007697;28;20183;-84
2022/07/31 03:04:39;;;;;;;0.10;0.10;;;16.80;99.90;;;;;;5018849;28;20663;-84
2022/07/31 03:07:05;;;;;;;0.10;0.10;;;16.80;99.90;;;;;;5011267;28;20322;-85
2022/07/31 03:09:30;;;;;;;0.10;0.10;;;16.80;99.90;;;;;;5024739;28;20193;-85
2022/07/31 03:11:57;;;;;;;0.10;0.10;;;16.80;99.90;;;;;;5020727;28;20203;-85
2022/07/31 03:14:25;;;;;;;0.10;0.10;;;16.80;99.90;;;;;;5018969;28;20374;-84
2022/07/31 03:16:52;;;;;;;0.10;0.10;;;16.80;99.90;;;;;;5023099;28;20520;-85
2022/07/31 03:19:20;;;;;;;0.10;0.10;;;16.80;99.90;;;;;;5008042;28;20514;-85
2022/07/31 03:21:47;;;;;;;0.10;0.10;;;16.70;99.90;;;;;;5020053;28;20439;-84
2022/07/31 03:24:13;;;;;;;0.10;0.10;;;16.70;99.90;;;;;;5018969;28;20541;-84
2022/07/31 03:26:39;;;;;;;0.10;0.10;;;16.70;99.90;;;;;;5021218;28;20450;-84
2022/07/31 03:29:04;;;;;;;0.10;0.10;;;16.70;99.90;;;;;;5027240;28;20450;-85
2022/07/31 03:31:30;;;;;;;0.10;0.10;;;16.60;99.90;;;;;;5031115;28;20590;-84
2022/07/31 03:33:56;;;;;;;0.10;0.10;;;16.70;99.90;;;;;;5028508;28;20262;-84
2022/07/31 03:36:22;;;;;;;0.10;0.10;;;16.70;99.90;;;;;;5023106;28;20214;-85
2022/07/31 03:38:47;;;;;;;0.10;0.10;;;16.70;99.90;;;;;;5029379;28;20200;-85
2022/07/31 03:41:13;;;;;;;0.10;0.10;;;16.70;99.90;;;;;;5031129;28;20503;-84
2022/07/31 03:43:41;;;;;;;0.10;0.10;;;16.60;99.90;;;;;;5025608;28;20679;-84
2022/07/31 03:46:07;;;;;;;0.10;0.10;;;16.60;99.90;;;;;;5029119;28;20179;-84
2022/07/31 03:48:33;;;;;;;0.10;0.10;;;16.60;99.90;;;;;;5023382;28;20461;-84
2022/07/31 03:50:58;;;;;;;0.10;0.10;;;16.70;99.90;;;;;;5022103;28;20439;-84
2022/07/31 03:53:25;;;;;;;0.10;0.10;;;16.60;99.90;;;;;;5012261;28;20231;-84
2022/07/31 03:55:52;;;;;;;0.10;0.10;;;16.70;99.90;;;;;;5023527;28;20271;-84
2022/07/31 03:58:18;;;;;;;0.10;0.10;;;16.70;99.90;;;;;;5004109;28;20475;-85
2022/07/31 04:00:44;;;;;;;0.10;0.10;;;16.70;99.90;;;;;;5021490;28;21024;-84
2022/07/31 04:03:11;;;;;;;0.10;0.10;;;16.60;99.90;;;;;;5024322;28;20477;-85
2022/07/31 04:05:38;;;;;;;0.10;0.10;;;16.70;99.90;;;;;;5009770;28;20187;-84
2022/07/31 04:08:05;;;;;;;0.10;0.10;;;16.70;99.90;;;;;;5025858;28;20450;-84
2022/07/31 04:10:30;;;;;;;0.10;0.10;;;16.70;99.90;;;;;;5026294;28;20589;-86
2022/07/31 04:12:56;;;;;;;0.10;0.10;;;16.70;99.90;;;;;;5010594;28;21000;-85
2022/07/31 04:15:22;;;;;;;0.10;0.10;;;16.70;99.90;;;;;;5021957;28;20239;-84
2022/07/31 04:17:48;;;;;;;0.10;0.10;;;16.70;99.90;;;;;;5016209;28;20533;-85
2022/07/31 04:20:13;;;;;;;0.10;0.10;;;16.80;99.90;;;;;;5016511;28;20203;-85
2022/07/31 04:22:39;;;;;;;0.10;0.10;;;16.90;99.90;;;;;;5025434;28;20191;-84
2022/07/31 04:25:05;;;;;;;0.10;0.10;;;16.80;99.90;;;;;;5024828;28;20222;-84
2022/07/31 04:27:30;;;;;;;0.10;0.10;;;16.80;99.90;;;;;;5020976;28;20199;-84
2022/07/31 04:29:56;;;;;;;0.10;0.10;;;16.90;99.90;;;;;;5008484;28;20481;-86
2022/07/31 04:32:23;;;;;;;0.10;0.10;;;16.90;99.90;;;;;;5015806;28;20634;-84
2022/07/31 04:34:49;;;;;;;0.10;0.10;;;16.80;99.90;;;;;;5021957;28;20852;-84
2022/07/31 04:37:15;;;;;;;0.10;0.10;;;16.70;99.90;;;;;;5017803;28;20513;-84
2022/07/31 04:39:41;;;;;;;0.10;0.10;;;16.70;99.90;;;;;;5027426;28;20437;-84
2022/07/31 04:42:08;;;;;;;0.10;0.10;;;16.90;99.90;;;;;;5012743;28;20453;-84
2022/07/31 04:44:34;;;;;;;0.10;0.10;;;16.90;99.90;;;;;;5016099;28;20671;-85
2022/07/31 04:47:01;;;;;;;0.10;0.10;;;16.90;99.90;;;;;;5020989;28;20458;-84
2022/07/31 04:49:26;;;;;;;0.10;0.10;;;16.90;99.90;;;;;;5021369;28;20206;-84
2022/07/31 04:51:52;;;;;;;0.10;0.10;;;16.80;99.90;;;;;;5011378;28;20461;-84
2022/07/31 04:54:18;;;;;;;0.10;0.10;;;16.90;99.90;;;;;;5014314;28;20212;-84
2022/07/31 04:56:44;;;;;;;0.10;0.10;;;17.00;99.90;;;;;;5015261;28;20870;-86
2022/07/31 04:59:13;;;;;;;0.10;0.10;;;17.00;99.90;;;;;;5017076;28;20588;-86
2022/07/31 05:01:40;;;;;;;0.10;0.10;;;17.00;99.90;;;;;;5019099;28;20496;-87
2022/07/31 05:04:08;;;;;;;0.10;0.10;;;17.00;99.90;;;;;;5018971;28;20453;-84
2022/07/31 05:06:47;;;;;;;0.10;0.10;;;17.00;99.90;;;;;;5012689;28;20931;-84
2022/07/31 05:09:15;;;;;;;0.10;0.10;;;17.10;99.90;;;;;;5026982;28;20457;-85
2022/07/31 05:11:41;;;;;;;0.10;0.10;;;17.10;99.90;;;;;;5020869;28;20450;-85
2022/07/31 05:14:08;;;;;;;0.10;0.10;;;17.20;99.90;;;;;;5022646;28;20497;-86
2022/07/31 05:16:34;;;;;;;0.10;0.10;;;17.20;99.90;;;;;;5029612;28;20194;-85
2022/07/31 05:19:00;;;;;;;0.10;0.10;;;17.20;99.90;;;;;;5029990;28;20532;-85
2022/07/31 05:21:27;;;;;;;0.10;0.10;;;17.30;99.90;;;;;;5028871;28;20442;-85
2022/07/31 05:23:54;;;;;;;0.10;0.10;;;17.40;99.90;;;;;;5029426;28;20456;-86
2022/07/31 05:26:20;;;;;;;0.10;0.10;;;17.50;99.90;;;;;;5026942;28;20450;-85
2022/07/31 05:28:48;;;;;;;0.10;0.10;;;17.60;99.90;;;;;;5028040;28;20489;-86
2022/07/31 05:31:14;;;;;;;0.10;0.10;;;17.70;99.90;;;;;;5027497;28;20180;-85
2022/07/31 05:33:40;;;;;;;0.10;0.10;;;17.80;99.90;;;;;;5026264;28;20560;-86
2022/07/31 05:36:06;;;;;;;0.10;0.10;;;17.80;99.90;;;;;;5027745;28;20446;-87
2022/07/31 05:38:32;;;;;;;0.10;0.10;;;17.90;99.90;;;;;;5018002;28;20180;-85
2022/07/31 05:40:57;;;;;;;0.10;0.10;;;17.90;99.90;;;;;;5028721;28;21026;-85
2022/07/31 05:43:23;;;;;;;0.10;0.10;;;17.90;99.90;;;;;;5028375;28;20265;-84
2022/07/31 05:45:48;;;;;;;0.10;0.10;;;17.90;99.90;;;;;;5017003;28;20192;-85
2022/07/31 05:48:15;;;;;;;0.10;0.10;;;17.90;99.90;;;;;;5015787;28;20214;-85
2022/07/31 05:50:42;;;;;;;0.10;0.10;;;18.00;99.90;;;;;;5030066;28;20214;-85
2022/07/31 05:53:11;;;;;;;0.10;0.10;;;17.90;99.90;;;;;;5029431;28;20529;-85
2022/07/31 05:55:38;;;;;;;0.10;0.10;;;18.10;99.90;;;;;;5025418;28;20464;-86
2022/07/31 05:58:03;;;;;;;0.10;0.10;;;18.20;99.90;;;;;;5025850;28;20465;-83
2022/07/31 06:00:29;;;;;;;0.10;0.10;;;18.20;99.90;;;;;;5024986;28;21093;-84
2022/07/31 06:02:55;;;;;;;0.10;0.10;;;18.40;99.90;;;;;;5019295;28;20271;-86
2022/07/31 06:05:21;;;;;;;0.10;0.10;;;18.20;99.90;;;;;;5001321;28;20195;-89
2022/07/31 06:07:46;;;;;;;0.10;0.10;;;18.30;99.90;;;;;;5025645;28;20445;-86
2022/07/31 06:10:12;;;;;;;0.10;0.10;;;18.20;99.90;;;;;;5025786;28;20191;-87
2022/07/31 06:12:37;;;;;;;0.10;0.10;;;18.30;99.90;;;;;;5018996;28;20194;-87
2022/07/31 06:15:03;;;;;;;0.10;0.10;;;18.30;99.90;;;;;;5030249;28;20242;-87
2022/07/31 06:17:29;;;;;;;0.10;0.10;;;18.40;99.90;;;;;;5019776;28;20696;-88
2022/07/31 06:19:54;;;;;;;0.10;0.10;;;18.60;99.90;;;;;;5028258;28;20332;-88
2022/07/31 06:22:20;;;;;;;0.10;0.10;;;18.80;99.90;;;;;;5028639;28;20226;-88
2022/07/31 06:24:45;;;;;;;0.10;0.10;;;18.80;99.90;;;;;;5040926;28;20179;-88
2022/07/31 06:27:10;;;;;;;0.10;0.10;;;18.90;99.90;;;;;;5049886;28;20178;-89
2022/07/31 06:29:36;;;;;;;0.10;0.10;;;19.00;99.90;;;;;;5019924;28;20606;-89
2022/07/31 06:32:02;;;;;;;0.10;0.00;;;19.00;99.90;;;;;;5029355;28;20192;-89
2022/07/31 06:34:27;;;;;;;0.10;0.00;;;19.10;99.90;;;;;;5000062;28;20319;-87
2022/07/31 06:36:53;;;;;;;0.10;0.10;;;19.20;99.90;;;;;;5026869;28;20188;-88
2022/07/31 06:39:18;;;;;;;0.10;0.10;;;19.20;99.90;;;;;;5022319;28;20237;-91
2022/07/31 06:41:45;;;;;;;0.10;0.10;;;19.20;99.90;;;;;;5024603;28;20195;-92
2022/07/31 06:44:15;;;;;;;0.10;0.10;;;19.20;99.90;;;;;;5025974;28;20179;-91
2022/07/31 06:46:41;;;;;;;0.10;0.10;;;19.30;99.90;;;;;;5021493;28;20606;-90
2022/07/31 06:49:06;;;;;;;0.10;0.10;;;19.30;99.90;;;;;;5018628;28;20961;-89
2022/07/31 06:51:32;;;;;;;0.10;0.00;;;19.40;99.90;;;;;;5026991;28;20187;-91
2022/07/31 06:54:02;;;;;;;0.10;0.10;;;19.30;99.90;;;;;;5008717;28;20223;-89
2022/07/31 06:56:29;;;;;;;0.10;0.10;;;19.40;99.90;;;;;;5007840;28;20717;-88
2022/07/31 06:58:54;;;;;;;0.10;0.10;;;19.60;99.90;;;;;;5021325;28;20477;-88
2022/07/31 07:01:20;;;;;;;0.10;0.10;;;19.70;99.90;;;;;;5007671;28;21508;-85
2022/07/31 07:03:46;;;;;;;0.10;0.10;;;19.70;99.90;;;;;;5018438;28;20274;-85
2022/07/31 07:06:12;;;;;;;0.10;0.10;;;19.70;99.90;;;;;;5025358;28;20558;-86
2022/07/31 07:08:37;;;;;;;0.10;0.10;;;19.70;99.90;;;;;;5025600;28;20447;-85
2022/07/31 07:11:03;;;;;;;0.10;0.10;;;19.70;99.90;;;;;;5025869;28;20274;-85
2022/07/31 07:13:29;;;;;;;0.10;0.10;;;19.70;99.90;;;;;;5019885;28;20415;-85
2022/07/31 07:15:55;;;;;;;0.10;0.10;;;20.00;99.90;;;;;;5018415;28;20558;-86
2022/07/31 07:18:20;;;;;;;0.10;0.00;;;20.20;99.90;;;;;;5022595;28;20564;-85
2022/07/31 07:20:47;;;;;;;0.10;0.00;;;20.30;99.90;;;;;;5027133;28;20571;-85
2022/07/31 07:23:12;;;;;;;0.10;0.00;;;20.40;99.90;;;;;;5028643;28;20191;-85
2022/07/31 07:25:38;;;;;;;0.10;0.00;;;20.70;99.90;;;;;;5027226;28;20477;-86
2022/07/31 07:28:03;;;;;;;0.10;0.00;;;20.90;99.90;;;;;;5026515;28;20176;-85
2022/07/31 07:30:29;;;;;;;0.10;0.00;;;20.90;99.90;;;;;;5029086;28;20238;-86
2022/07/31 07:32:54;;;;;;;0.10;0.00;;;21.00;99.90;;;;;;5010979;28;20717;-86
2022/07/31 07:35:20;;;;;;;0.10;0.00;;;21.10;99.90;;;;;;5030899;28;20243;-85
2022/07/31 07:37:47;;;;;;;0.10;0.10;;;21.00;99.90;;;;;;5031267;28;20195;-87
2022/07/31 07:40:13;;;;;;;0.10;0.00;;;21.00;99.90;;;;;;5021988;28;20443;-85
2022/07/31 07:42:39;;;;;;;0.10;0.00;;;21.00;99.90;;;;;;5027192;28;20453;-87
2022/07/31 07:45:05;;;;;;;0.10;0.00;;;20.70;99.90;;;;;;5030610;28;20950;-86
2022/07/31 07:47:30;;;;;;;0.10;0.00;;;21.00;99.90;;;;;;5031856;28;20792;-86
2022/07/31 07:49:56;;;;;;;0.10;0.00;;;21.10;99.90;;;;;;5023549;28;20446;-86
2022/07/31 07:52:21;;;;;;;0.10;0.00;;;21.30;99.90;;;;;;5024080;28;20194;-86
2022/07/31 07:54:47;;;;;;;0.10;0.00;;;21.30;99.90;;;;;;5025929;28;20220;-86
2022/07/31 07:57:19;;;;;;;0.10;0.00;;;21.40;99.90;;;;;;5010208;28;20184;-85
2022/07/31 07:59:46;;;;;;;0.10;0.00;;;21.30;99.90;;;;;;5009881;28;20421;-85
2022/07/31 08:02:12;;;;;;;0.10;0.00;;;21.30;99.90;;;;;;5007702;28;20500;-86
2022/07/31 08:04:38;;;;;;;0.00;0.00;;;21.20;99.90;;;;;;5012793;28;20422;-86
2022/07/31 08:07:04;;;;;;;0.10;0.00;;;21.40;99.90;;;;;;4996118;28;20439;-85
2022/07/31 08:09:30;;;;;;;0.10;0.00;;;21.60;99.90;;;;;;5013568;28;20184;-86
2022/07/31 08:11:56;;;;;;;0.10;0.00;;;21.80;99.90;;;;;;5013215;28;20200;-86
2022/07/31 08:14:21;;;;;;;0.10;0.00;;;21.90;99.90;;;;;;4994867;28;20524;-87
2022/07/31 08:16:47;;;;;;;0.10;0.00;;;21.80;99.90;;;;;;4978890;28;20528;-86
2022/07/31 08:19:12;;;;;;;0.10;0.00;;;21.80;99.90;;;;;;4993691;28;20178;-85
2022/07/31 08:21:38;;;;;;;0.10;0.00;;;21.80;99.90;;;;;;4996655;28;20231;-87
2022/07/31 08:24:05;;;;;;;0.10;0.10;;;21.90;99.90;;;;;;5013362;28;20176;-87
2022/07/31 08:27:22;;;;;;;0.10;0.00;;;22.00;99.90;;;;;;5000098;28;20283;-87
2022/07/31 08:29:16;;;;;;;0.10;0.00;;;22.20;99.90;;;;;;5000373;28;20447;-87
2022/07/31 08:31:42;;;;;;;0.10;0.00;;;22.10;99.90;;;;;;5008288;28;20453;-88
2022/07/31 08:34:07;;;;;;;0.10;0.00;;;21.80;99.90;;;;;;5005159;28;20235;-88
2022/07/31 08:36:33;;;;;;;0.10;0.00;;;22.10;99.90;;;;;;4987500;28;20185;-88
2022/07/31 08:38:58;;;;;;;0.10;0.00;;;22.20;99.90;;;;;;5003051;28;20615;-90
2022/07/31 08:41:24;;;;;;;0.10;0.00;;;22.50;99.90;;;;;;5008527;28;20180;-90
2022/07/31 08:43:50;;;;;;;0.10;0.00;;;22.70;99.90;;;;;;4987409;28;20691;-88
2022/07/31 08:46:16;;;;;;;0.10;0.00;;;22.60;99.90;;;;;;5007093;28;20196;-89
2022/07/31 08:48:43;;;;;;;0.10;0.00;;;22.60;99.90;;;;;;5000744;28;20180;-89
2022/07/31 08:51:14;;;;;;;0.10;0.00;;;22.80;99.90;;;;;;5010543;28;20442;-90
2022/07/31 08:53:42;;;;;;;0.10;0.00;;;22.70;99.90;;;;;;5006349;28;20910;-89
2022/07/31 08:56:08;;;;;;;0.10;0.00;;;22.70;99.90;;;;;;5011106;28;20431;-90
2022/07/31 08:58:34;;;;;;;0.10;0.00;;;22.50;99.90;;;;;;5010211;28;20894;-91
2022/07/31 09:01:00;;;;;;;0.10;0.00;;;22.50;99.90;;;;;;5009689;28;20187;-89
2022/07/31 09:03:26;;;;;;;0.10;0.00;;;22.50;99.90;;;;;;5026920;28;20184;-89
2022/07/31 09:05:51;;;;;;;0.10;0.00;;;22.60;99.90;;;;;;5028009;28;20870;-88
2022/07/31 09:08:17;;;;;;;0.10;0.00;;;22.70;99.90;;;;;;5025829;28;20191;-90
2022/07/31 09:10:42;;;;;;;0.10;0.00;;;22.70;99.90;;;;;;5026866;28;20274;-91
2022/07/31 09:13:13;;;;;;;0.10;0.00;;;22.70;99.90;;;;;;5011000;28;20215;-90
2022/07/31 09:15:39;;;;;;;0.10;0.00;;;22.70;99.90;;;;;;5026492;28;20683;-91
2022/07/31 09:18:15;;;;;;;0.10;0.00;;;22.90;99.90;;;;;;5017877;28;20454;-90
2022/07/31 09:20:55;;;;;;;0.10;0.00;;;23.00;99.90;;;;;;5016892;28;20519;-91
2022/07/31 09:23:21;;;;;;;0.10;0.00;;;23.30;99.90;;;;;;5012483;28;20442;-89
2022/07/31 09:26:06;;;;;;;0.10;0.00;;;23.50;99.90;;;;;;5022993;28;20438;-87
2022/07/31 09:28:34;;;;;;;0.10;0.00;;;23.70;99.90;;;;;;5021072;28;20435;-88
2022/07/31 09:31:00;;;;;;;0.10;0.00;;;23.30;99.90;;;;;;5029255;28;20524;-89
2022/07/31 09:33:28;;;;;;;0.10;0.00;;;23.20;99.90;;;;;;5029011;28;20474;-90
2022/07/31 09:35:54;;;;;;;0.10;0.00;;;23.20;99.90;;;;;;5027434;28;20446;-91
2022/07/31 09:38:20;;;;;;;0.10;0.00;;;23.10;99.90;;;;;;5029850;28;20440;-89
2022/07/31 09:40:46;;;;;;;0.10;0.00;;;22.70;99.90;;;;;;5028021;28;20191;-88
2022/07/31 09:43:16;;;;;;;0.10;0.00;;;23.10;99.90;;;;;;5029584;28;20482;-90
2022/07/31 09:45:45;;;;;;;0.10;0.00;;;23.30;99.90;;;;;;5028217;28;20252;-90
2022/07/31 09:48:14;;;;;;;0.10;0.00;;;23.90;99.90;;;;;;5019420;28;21004;-90
2022/07/31 09:50:58;;;;;;;0.10;0.00;;;24.00;99.90;;;;;;5022281;28;20806;-90
2022/07/31 09:53:24;;;;;;;0.10;0.00;;;24.00;99.90;;;;;;5015721;28;20469;-88
2022/07/31 09:55:55;;;;;;;0.10;0.00;;;23.70;99.90;;;;;;5026561;28;20461;-90
2022/07/31 09:58:21;;;;;;;0.10;0.00;;;23.90;99.90;;;;;;5023466;28;20484;-89
2022/07/31 10:00:49;;;;;;;0.10;0.00;;;23.90;99.90;;;;;;5028224;28;20815;-88
2022/07/31 10:03:17;;;;;;;0.10;0.00;;;23.90;99.90;;;;;;5021832;28;20455;-88
2022/07/31 10:05:44;;;;;;;0.10;0.00;;;24.20;99.90;;;;;;5009418;28;20478;-88
2022/07/31 10:08:12;;;;;;;0.10;0.00;;;24.80;99.90;;;;;;5007981;28;20451;-89
2022/07/31 10:10:38;;;;;;;0.10;0.00;;;24.80;99.90;;;;;;5020833;28;20499;-89
2022/07/31 10:13:09;;;;;;;0.10;0.00;;;24.70;99.90;;;;;;5010432;28;21054;-90
2022/07/31 10:15:36;;;;;;;0.10;0.00;;;24.70;99.90;;;;;;5011264;28;20291;-90
2022/07/31 10:18:02;;;;;;;0.10;0.00;;;24.50;99.90;;;;;;5014093;28;20454;-91
2022/07/31 10:20:29;;;;;;;0.10;0.00;;;25.10;99.90;;;;;;5012575;28;20477;-91
2022/07/31 10:22:58;;;;;;;0.10;0.00;;;25.10;99.90;;;;;;5018050;28;20496;-91
2022/07/31 10:25:26;;;;;;;0.10;0.00;;;24.80;99.90;;;;;;5026568;28;20549;-86
2022/07/31 10:27:53;;;;;;;0.10;0.00;;;24.60;99.90;;;;;;5012040;28;20447;-91
2022/07/31 10:30:20;;;;;;;0.10;0.00;;;24.50;99.90;;;;;;5007262;28;20446;-90
2022/07/31 10:32:45;;;;;;;0.10;0.00;;;24.00;99.90;;;;;;5010804;28;20447;-89
2022/07/31 10:35:11;;;;;;;0.10;0.00;;;24.10;99.90;;;;;;5010369;28;20827;-88
2022/07/31 10:37:59;;;;;;;0.10;0.00;;;24.20;99.90;;;;;;4973385;28;20201;-89
2022/07/31 10:40:32;;;;;;;0.10;0.00;;;24.10;99.90;;;;;;4990733;28;20463;-89
2022/07/31 10:43:23;;;;;;;0.10;0.00;;;24.20;99.90;;;;;;4988491;28;20823;-90
2022/07/31 10:45:50;;;;;;;0.10;0.00;;;24.20;99.90;;;;;;4980958;28;20505;-88
2022/07/31 10:48:17;;;;;;;0.10;0.00;;;24.50;99.90;;;;;;4979593;28;21080;-90
2022/07/31 10:50:43;;;;;;;0.10;0.00;;;24.70;99.90;;;;;;5010222;28;20825;-87
2022/07/31 10:53:18;;;;;;;0.10;0.00;;;26.10;99.90;;;;;;5022733;28;20466;-89
2022/07/31 10:55:44;;;;;;;0.10;0.00;;;26.20;99.90;;;;;;5011386;28;20497;-88
2022/07/31 10:58:12;;;;;;;0.10;0.00;;;26.40;99.90;;;;;;5011821;28;21192;-90
2022/07/31 11:00:39;;;;;;;0.10;0.00;;;26.00;99.90;;;;;;5002737;28;20192;-89
2022/07/31 11:03:12;;;;;;;0.10;0.00;;;26.60;99.90;;;;;;5008485;28;21254;-89
2022/07/31 11:05:38;;;;;;;0.10;0.00;;;26.10;99.90;;;;;;5006702;28;20526;-91
2022/07/31 11:08:06;;;;;;;0.10;0.00;;;25.90;99.90;;;;;;5006561;28;20510;-91
2022/07/31 11:10:35;;;;;;;0.10;0.00;;;26.20;99.90;;;;;;5012626;28;20187;-90
2022/07/31 11:13:09;;;;;;;0.10;0.00;;;26.20;99.90;;;;;;5003084;28;20467;-90
2022/07/31 11:15:38;;;;;;;0.10;0.00;;;26.50;99.90;;;;;;5012781;28;20537;-90
2022/07/31 11:18:15;;;;;;;0.10;0.00;;;26.70;99.90;;;;;;5014156;28;20431;-92
2022/07/31 11:20:46;;;;;;;0.10;0.00;;;26.50;99.90;;;;;;5006850;28;20527;-90
2022/07/31 11:23:15;;;;;;;0.10;0.00;;;26.60;99.90;;;;;;5012168;28;20444;-91
2022/07/31 11:25:42;;;;;;;0.10;0.00;;;25.90;99.90;;;;;;5002485;28;20467;-91
2022/07/31 11:28:22;;;;;;;0.10;0.00;;;25.70;99.90;;;;;;5003028;28;20438;-88
2022/07/31 11:30:52;;;;;;;0.10;0.00;;;25.80;99.90;;;;;;4997301;28;21016;-91
2022/07/31 11:33:31;;;;;;;0.10;0.00;;;25.40;99.90;;;;;;4998213;28;20467;-89
2022/07/31 11:36:04;;;;;;;0.10;0.00;;;25.90;99.90;;;;;;4996667;28;20548;-90
2022/07/31 11:38:29;;;;;;;0.10;0.00;;;26.70;99.90;;;;;;4999454;28;20449;-94
2022/07/31 11:40:55;;;;;;;0.10;0.00;;;26.90;99.90;;;;;;4999614;28;20451;-91
2022/07/31 11:43:21;;;;;;;0.10;0.00;;;26.50;99.90;;;;;;5021402;28;20189;-91
2022/07/31 11:45:50;;;;;;;0.10;0.00;;;26.10;99.90;;;;;;5013687;28;20184;-88
2022/07/31 11:48:16;;;;;;;0.10;0.00;;;26.10;99.90;;;;;;5024800;28;20250;-89
2022/07/31 11:50:43;;;;;;;0.10;0.00;;;26.10;99.90;;;;;;5010255;28;22394;-92
2022/07/31 11:53:09;;;;;;;0.10;0.00;;;26.10;99.90;;;;;;4993499;28;20478;-93
2022/07/31 11:55:49;;;;;;;0.10;0.00;;;26.70;99.90;;;;;;5015123;28;20539;-93
2022/07/31 11:58:16;;;;;;;0.10;0.00;;;27.70;99.90;;;;;;5011639;28;20533;-90
2022/07/31 12:01:02;;;;;;;0.10;0.00;;;27.70;99.90;;;;;;4973315;28;20510;-92
2022/07/31 12:03:29;;;;;;;0.10;0.00;;;27.60;99.90;;;;;;5008882;28;20502;-89
2022/07/31 12:05:55;;;;;;;0.10;0.00;;;26.90;99.90;;;;;;4994465;28;20439;-89
2022/07/31 12:08:22;;;;;;;0.10;0.00;;;26.20;99.90;;;;;;5005972;28;20928;-90
2022/07/31 12:10:52;;;;;;;0.10;0.00;;;25.90;99.90;;;;;;5007994;28;20451;-91
2022/07/31 12:13:19;;;;;;;0.10;0.00;;;25.70;99.90;;;;;;5011997;28;20482;-88
2022/07/31 12:16:09;;;;;;;0.10;0.00;;;26.40;99.90;;;;;;5005350;28;20466;-91
2022/07/31 12:18:52;;;;;;;0.10;0.00;;;26.30;99.90;;;;;;5004274;28;20457;-90
2022/07/31 12:21:18;;;;;;;0.10;0.00;;;26.20;99.90;;;;;;5004430;28;20436;-93
2022/07/31 12:23:50;;;;;;;0.10;0.00;;;26.10;99.90;;;;;;4999886;28;20956;-91
2022/07/31 12:26:23;;;;;;;0.10;0.00;;;26.00;99.90;;;;;;5000637;28;20435;-90
2022/07/31 12:29:09;;;;;;;0.10;0.00;;;26.10;99.90;;;;;;5007632;28;20446;-90
2022/07/31 12:31:53;;;;;;;0.10;0.00;;;26.30;99.90;;;;;;4997007;28;20579;-88
2022/07/31 12:34:37;;;;;;;0.10;0.00;;;26.10;99.90;;;;;;5001748;28;20975;-87
2022/07/31 12:37:18;;;;;;;0.10;0.00;;;26.00;99.90;;;;;;4994003;28;20442;-86
2022/07/31 12:39:46;;;;;;;0.10;0.00;;;25.60;99.90;;;;;;4997779;28;21190;-87
2022/07/31 12:42:25;;;;;;;0.10;0.00;;;25.40;99.90;;;;;;5004689;28;20501;-86
2022/07/31 12:44:52;;;;;;;0.10;0.00;;;25.30;99.90;;;;;;5004872;28;20505;-88
2022/07/31 12:47:26;;;;;;;0.10;0.00;;;25.30;99.90;;;;;;5004973;28;20479;-88
2022/07/31 12:49:52;;;;;;;0.10;0.00;;;25.20;99.90;;;;;;5000800;28;20923;-88
2022/07/31 12:52:18;;;;;;;0.10;0.00;;;25.30;99.90;;;;;;5009263;28;20887;-88